Time;durP1;ratioP1;P1;durP2;ratioP2;P2;SDS_P1;SDS_P2;PMS_P1;PMS_P2;Temp;Humidity;BMP_temperature;BMP_pressure;BME280_temperature;BME280_humidity;BME280_pressure;Samples;Min_cycle;Max_cycle;Signal;HPM_P1;HPM_P2
2022/08/30 00:01:11;;;;;;;;;;;13.40;99.90;;;;;;5092947;28;20127;-66
2022/08/30 00:03:44;;;;;;;6.90;2.67;;;13.30;99.90;;;;;;5095986;28;19916;-66
2022/08/30 00:06:12;;;;;;;6.10;2.83;;;13.40;99.90;;;;;;5088761;28;20051;-65
2022/08/30 00:08:39;;;;;;;5.47;3.13;;;13.20;99.90;;;;;;5096390;28;20036;-66
2022/08/30 00:11:08;;;;;;;5.85;2.78;;;13.30;99.90;;;;;;5091125;28;20498;-67
2022/08/30 00:13:35;;;;;;;4.47;2.78;;;13.20;99.90;;;;;;5090792;28;20051;-66
2022/08/30 00:16:01;;;;;;;5.82;2.95;;;13.30;99.90;;;;;;5089560;28;20047;-66
2022/08/30 00:18:27;;;;;;;;;;;13.30;99.90;;;;;;5084236;28;20067;-65
2022/08/30 00:20:54;;;;;;;6.85;2.78;;;13.30;99.90;;;;;;5077470;28;19976;-66
2022/08/30 00:23:21;;;;;;;7.65;3.40;;;13.20;99.90;;;;;;5079648;28;20046;-65
2022/08/30 00:25:46;;;;;;;6.35;3.30;;;13.10;99.90;;;;;;5078407;28;20518;-65
2022/08/30 00:28:13;;;;;;;;;;;13.10;99.90;;;;;;5072054;28;20036;-65
2022/08/30 00:30:40;;;;;;;7.30;3.45;;;13.20;99.90;;;;;;5080062;28;19920;-65
2022/08/30 00:33:06;;;;;;;4.80;2.80;;;13.20;99.90;;;;;;5067409;28;20089;-66
2022/08/30 00:35:32;;;;;;;7.40;3.25;;;13.20;99.90;;;;;;5071556;28;20044;-66
2022/08/30 00:37:58;;;;;;;8.73;3.08;;;13.20;99.90;;;;;;5068321;28;20695;-66
2022/08/30 00:40:24;;;;;;;8.77;3.72;;;13.20;99.90;;;;;;5068355;28;20033;-66
2022/08/30 00:42:50;;;;;;;6.15;3.42;;;13.30;99.90;;;;;;5065338;28;20522;-66
2022/08/30 00:45:23;;;;;;;;;;;13.30;99.90;;;;;;5068628;28;20511;-65
2022/08/30 00:47:49;;;;;;;3.90;2.80;;;13.20;99.90;;;;;;5068891;28;20042;-66
2022/08/30 00:50:17;;;;;;;5.03;3.20;;;13.20;99.90;;;;;;5068301;28;20036;-66
2022/08/30 00:52:46;;;;;;;7.25;3.10;;;13.10;99.90;;;;;;5067242;28;20037;-65
2022/08/30 00:55:13;;;;;;;7.03;3.10;;;13.10;99.90;;;;;;5066596;28;20615;-65
2022/08/30 00:57:42;;;;;;;6.22;3.00;;;13.10;99.90;;;;;;5067676;28;20097;-66
2022/08/30 01:00:08;;;;;;;4.78;3.00;;;13.10;99.90;;;;;;5066297;28;20040;-65
2022/08/30 01:02:34;;;;;;;5.72;3.20;;;13.10;99.90;;;;;;5067617;28;20051;-66
2022/08/30 01:05:01;;;;;;;;;;;13.10;99.90;;;;;;5066765;28;20025;-66
2022/08/30 01:07:27;;;;;;;7.35;3.65;;;13.10;99.90;;;;;;5067091;28;20498;-65
2022/08/30 01:09:52;;;;;;;;;;;13.10;99.90;;;;;;5068142;28;20059;-65
2022/08/30 01:12:18;;;;;;;8.10;3.05;;;13.00;99.90;;;;;;5067450;28;19923;-65
2022/08/30 01:14:44;;;;;;;;;;;13.10;99.90;;;;;;5067721;28;20052;-65
2022/08/30 01:17:10;;;;;;;7.15;3.45;;;13.00;99.90;;;;;;5067292;28;20490;-66
2022/08/30 01:19:51;;;;;;;;;;;13.00;99.90;;;;;;5067128;28;20447;-66
2022/08/30 01:22:37;;;;;;;8.02;3.55;;;12.90;99.90;;;;;;5061655;28;19916;-66
2022/08/30 01:25:06;;;;;;;15.68;3.80;;;12.90;99.90;;;;;;5066288;28;20072;-66
2022/08/30 01:27:33;;;;;;;6.35;3.42;;;12.80;99.90;;;;;;5066527;28;20507;-65
2022/08/30 01:30:00;;;;;;;8.95;3.42;;;12.80;99.90;;;;;;5065924;28;20047;-66
2022/08/30 01:32:30;;;;;;;5.88;3.30;;;12.80;99.90;;;;;;5067735;28;20048;-65
2022/08/30 01:34:56;;;;;;;7.40;3.55;;;12.80;99.90;;;;;;5064618;28;20056;-67
2022/08/30 01:37:26;;;;;;;8.77;3.50;;;12.90;99.90;;;;;;5064586;28;20043;-66
2022/08/30 01:39:53;;;;;;;5.20;3.00;;;12.90;99.90;;;;;;5067337;28;20072;-66
2022/08/30 01:42:18;;;;;;;;;;;12.90;99.90;;;;;;5064047;28;20449;-66
2022/08/30 01:44:45;;;;;;;4.47;3.08;;;12.90;99.90;;;;;;5063157;28;19920;-66
2022/08/30 01:47:12;;;;;;;6.85;3.35;;;12.90;99.90;;;;;;5065716;28;20120;-66
2022/08/30 01:49:39;;;;;;;7.55;3.30;;;13.00;99.90;;;;;;5063611;28;20310;-65
2022/08/30 01:52:06;;;;;;;6.40;3.30;;;13.00;99.90;;;;;;5065212;28;20115;-66
2022/08/30 01:54:34;;;;;;;6.57;3.47;;;13.00;99.90;;;;;;5061552;28;20614;-66
2022/08/30 01:57:01;;;;;;;4.88;3.22;;;13.00;99.90;;;;;;5065386;28;20059;-66
2022/08/30 01:59:27;;;;;;;6.30;3.65;;;13.00;99.90;;;;;;5062440;28;20529;-65
2022/08/30 02:01:53;;;;;;;;;;;13.00;99.90;;;;;;5064730;28;20040;-66
2022/08/30 02:04:18;;;;;;;5.72;3.70;;;13.00;99.90;;;;;;5066248;28;19948;-66
2022/08/30 02:06:44;;;;;;;;;;;13.10;99.90;;;;;;5067257;28;20098;-65
2022/08/30 02:09:11;;;;;;;5.97;3.20;;;13.10;99.90;;;;;;5066472;28;19924;-66
2022/08/30 02:11:37;;;;;;;5.45;3.30;;;13.20;99.90;;;;;;5065887;28;20032;-66
2022/08/30 02:14:04;;;;;;;4.10;3.10;;;13.20;99.90;;;;;;5063967;28;20585;-65
2022/08/30 02:16:30;;;;;;;4.82;3.33;;;13.20;99.90;;;;;;5065347;28;20048;-65
2022/08/30 02:18:56;;;;;;;6.00;2.80;;;13.20;99.90;;;;;;5066939;28;20486;-65
2022/08/30 02:21:22;;;;;;;;;;;13.30;99.90;;;;;;5066131;28;20124;-66
2022/08/30 02:23:48;;;;;;;5.80;3.90;;;13.30;99.90;;;;;;5064609;28;19924;-66
2022/08/30 02:26:15;;;;;;;5.90;3.25;;;13.30;99.90;;;;;;5056836;28;20156;-66
2022/08/30 02:28:41;;;;;;;5.57;3.10;;;13.40;99.90;;;;;;5065747;28;20032;-66
2022/08/30 02:31:06;;;;;;;;;;;13.40;99.90;;;;;;5065101;28;20182;-66
2022/08/30 02:33:32;;;;;;;8.20;3.67;;;13.30;99.90;;;;;;5065744;28;19938;-66
2022/08/30 02:35:57;;;;;;;;;;;13.30;99.90;;;;;;5065873;28;20046;-66
2022/08/30 02:38:24;;;;;;;6.95;3.42;;;13.30;99.90;;;;;;5065631;28;19913;-65
2022/08/30 02:40:50;;;;;;;6.22;3.28;;;13.20;99.90;;;;;;5064801;28;20037;-66
2022/08/30 02:43:16;;;;;;;10.43;4.25;;;13.20;99.90;;;;;;5061508;28;20040;-66
2022/08/30 02:45:41;;;;;;;;;;;13.20;99.90;;;;;;5065378;28;20044;-66
2022/08/30 02:48:07;;;;;;;8.02;4.00;;;;;;;;;;5063823;28;19921;-66
2022/08/30 02:50:33;;;;;;;6.20;3.28;;;;;;;;;;5065800;28;20381;-66
2022/08/30 02:52:59;;;;;;;;;;;;;;;;;;5064579;28;20044;-66
2022/08/30 02:55:25;;;;;;;6.72;3.60;;;;;;;;;;5065443;28;19928;-65
2022/08/30 02:57:51;;;;;;;;;;;;;;;;;;5068504;28;20032;-66
2022/08/30 03:00:19;;;;;;;7.22;3.47;;;;;;;;;;5055519;28;19935;-66
2022/08/30 03:02:45;;;;;;;13.10;4.53;;;;;;;;;;5064453;28;20138;-66
2022/08/30 03:05:11;;;;;;;;;;;;;;;;;;5061230;28;20290;-66
2022/08/30 03:07:38;;;;;;;9.33;3.60;;;;;;;;;;5062043;28;19921;-66
2022/08/30 03:10:05;;;;;;;6.20;3.50;;;;;;;;;;5062423;28;20287;-65
2022/08/30 03:12:31;;;;;;;11.48;4.20;;;;;;;;;;5060298;28;20055;-66
2022/08/30 03:14:58;;;;;;;10.02;4.40;;;;;;;;;;5062175;28;20040;-66
2022/08/30 03:17:25;;;;;;;11.18;3.72;;;;;;;;;;5059927;28;20046;-66
2022/08/30 03:19:51;;;;;;;6.95;3.75;;;;;;;;;;5062300;28;20040;-66
2022/08/30 03:22:18;;;;;;;11.63;3.90;;;;;;;;;;5062007;28;20435;-65
2022/08/30 03:24:44;;;;;;;6.47;3.88;;;;;;;;;;5062459;28;20049;-66
2022/08/30 03:27:11;;;;;;;10.07;4.05;;;;;;;;;;5066459;28;20044;-66
2022/08/30 03:29:38;;;;;;;8.27;3.83;;;;;;;;;;5064771;28;20040;-66
2022/08/30 03:32:04;;;;;;;8.05;3.95;;;;;;;;;;5064598;28;20055;-66
2022/08/30 03:34:31;;;;;;;10.07;4.47;;;;;;;;;;5065016;28;20041;-66
2022/08/30 03:37:00;;;;;;;7.75;4.07;;;;;;;;;;5065057;28;20049;-65
2022/08/30 03:39:26;;;;;;;6.72;4.20;;;;;;;;;;5068545;28;20048;-66
2022/08/30 03:41:52;;;;;;;6.20;4.10;;;;;;;;;;5064791;28;20037;-65
2022/08/30 03:44:19;;;;;;;6.57;4.15;;;;;;;;;;5063662;28;20396;-65
2022/08/30 03:46:45;;;;;;;9.07;4.43;;;;;;;;;;5064978;28;20467;-65
2022/08/30 03:49:11;;;;;;;7.57;4.75;;;;;;;;;;5071013;28;20029;-66
2022/08/30 03:51:37;;;;;;;;;;;;;;;;;;5065626;28;20036;-66
2022/08/30 03:54:03;;;;;;;7.32;4.00;;;;;;;;;;5067536;28;19935;-65
2022/08/30 03:56:29;;;;;;;;;;;;;;;;;;5069298;28;20040;-66
2022/08/30 03:58:56;;;;;;;6.57;3.63;;;;;;;;;;5067903;28;19976;-66
2022/08/30 04:01:22;;;;;;;6.53;4.20;;;;;;;;;;5067785;28;20040;-66
2022/08/30 04:03:48;;;;;;;;;;;;;;;;;;5071321;28;20032;-65
2022/08/30 04:06:14;;;;;;;5.18;3.50;;;;;;;;;;5068085;28;19924;-66
2022/08/30 04:08:39;;;;;;;;;;;;;;;;;;5069088;28;20123;-66
2022/08/30 04:11:06;;;;;;;6.68;3.60;;;;;;;;;;5066023;28;19917;-65
2022/08/30 04:13:32;;;;;;;10.43;4.20;;;;;;;;;;5063763;28;20043;-65
2022/08/30 04:15:58;;;;;;;9.18;4.22;;;;;;;;;;5066984;28;20503;-66
2022/08/30 04:18:24;;;;;;;;;;;;;;;;;;5067900;28;20039;-65
2022/08/30 04:20:51;;;;;;;9.43;4.50;;;;;;;;;;5069125;28;19912;-66
2022/08/30 04:23:17;;;;;;;9.45;4.15;;;;;;;;;;5065772;28;20556;-65
2022/08/30 04:25:42;;;;;;;;;;;;;;;;;;5068635;28;20127;-65
2022/08/30 04:28:09;;;;;;;6.97;4.18;;;;;;;;;;5067356;28;19959;-65
2022/08/30 04:30:38;;;;;;;8.45;4.47;;;;;;;;;;5067697;28;20040;-65
2022/08/30 04:33:05;;;;;;;9.30;4.13;;;;;;;;;;5067649;28;20037;-66
2022/08/30 04:35:31;;;;;;;8.50;4.35;;;;;;;;;;5081855;28;20047;-65
2022/08/30 04:37:57;;;;;;;;;;;;;;;;;;5068004;28;20690;-66
2022/08/30 04:40:23;;;;;;;7.78;4.90;;;;;;;;;;5076072;28;19978;-66
2022/08/30 04:42:52;;;;;;;7.57;4.35;;;;;;;;;;5067437;28;20064;-67
2022/08/30 04:45:19;;;;;;;7.68;4.45;;;;;;;;;;5072265;28;20447;-68
2022/08/30 04:47:45;;;;;;;10.10;4.85;;;;;;;;;;5067978;28;20062;-66
2022/08/30 04:50:11;;;;;;;;;;;;;;;;;;5069520;28;20037;-66
2022/08/30 04:52:37;;;;;;;8.15;4.32;;;;;;;;;;5067452;28;19923;-66
2022/08/30 04:55:04;;;;;;;14.45;4.53;;;;;;;;;;5072671;28;20088;-62
2022/08/30 04:57:30;;;;;;;8.68;4.57;;;;;;;;;;5065888;28;20048;-66
2022/08/30 04:59:56;;;;;;;7.43;4.38;;;;;;;;;;5067266;28;20415;-65
2022/08/30 05:02:22;;;;;;;11.27;4.68;;;;;;;;;;5061459;28;20032;-64
2022/08/30 05:07:33;;;;;;;10.55;4.30;;;;;;;;;;5064704;28;20052;-65
2022/08/30 05:09:59;;;;;;;6.93;4.47;;;;;;;;;;5062731;28;20032;-65
2022/08/30 05:12:25;;;;;;;6.93;4.50;;;;;;;;;;5065110;28;20044;-64
2022/08/30 05:14:51;;;;;;;;;;;;;;;;;;5067026;28;20066;-66
2022/08/30 05:17:17;;;;;;;5.00;3.95;;;;;;;;;;5059473;28;19917;-65
2022/08/30 05:19:43;;;;;;;8.07;4.05;;;;;;;;;;5067689;28;20036;-64
2022/08/30 05:22:10;;;;;;;11.55;4.45;;;;;;;;;;5061611;28;20036;-66
2022/08/30 05:24:36;;;;;;;12.43;4.20;;;;;;;;;;5067595;28;20546;-66
2022/08/30 05:27:02;;;;;;;4.78;3.40;;;;;;;;;;5061032;28;20032;-65
2022/08/30 05:29:30;;;;;;;8.57;3.33;;;;;;;;;;5066342;28;20072;-64
2022/08/30 05:31:56;;;;;;;5.28;3.50;;;;;;;;;;5059294;28;20045;-65
2022/08/30 05:34:22;;;;;;;;;;;;;;;;;;5059382;28;20692;-65
2022/08/30 05:36:48;;;;;;;7.45;3.88;;;;;;;;;;5061642;28;19952;-65
2022/08/30 05:39:14;;;;;;;;;;;;;;;;;;5059035;28;20043;-65
2022/08/30 05:41:40;;;;;;;5.18;3.47;;;;;;;;;;5059922;28;19917;-66
2022/08/30 05:44:07;;;;;;;6.85;3.40;;;;;;;;;;5065453;28;20519;-64
2022/08/30 05:46:34;;;;;;;6.63;3.80;;;;;;;;;;5060718;28;20044;-64
2022/08/30 05:49:00;;;;;;;7.18;3.72;;;;;;;;;;5066229;28;20041;-64
2022/08/30 05:51:27;;;;;;;5.43;3.72;;;;;;;;;;5060219;28;20102;-64
2022/08/30 05:53:54;;;;;;;5.28;3.53;;;;;;;;;;5065050;28;20041;-64
2022/08/30 05:56:21;;;;;;;14.63;3.95;;;;;;;;;;5056576;28;20044;-65
2022/08/30 05:58:47;;;;;;;17.80;3.78;;;;;;;;;;5063114;28;20036;-64
2022/08/30 06:01:13;;;;;;;;;;;;;;;;;;5061565;28;20032;-65
2022/08/30 06:03:39;;;;;;;8.75;3.95;;;;;;;;;;5077761;28;19981;-64
2022/08/30 06:06:05;;;;;;;;;;;;;;;;;;5059774;28;20106;-65
2022/08/30 06:08:31;;;;;;;6.80;4.18;;;;;;;;;;5062580;28;19985;-63
2022/08/30 06:10:57;;;;;;;7.82;3.75;;;;;;;;;;5057513;28;20048;-64
2022/08/30 06:13:23;;;;;;;;;;;;;;;;;;5061109;28;20033;-63
2022/08/30 06:15:51;;;;;;;10.10;4.15;;;;;;;;;;5063668;28;20042;-66
2022/08/30 06:18:17;;;;;;;6.50;3.67;;;;;;;;;;5061269;28;20047;-65
2022/08/30 06:20:43;;;;;;;;;;;;;;;;;;5065562;28;20028;-64
2022/08/30 06:23:09;;;;;;;8.60;3.72;;;;;;;;;;5059798;28;19916;-64
2022/08/30 06:25:36;;;;;;;8.70;3.85;;;;;;;;;;5066296;28;20129;-66
2022/08/30 06:28:04;;;;;;;8.43;4.10;;;;;;;;;;5059467;28;20080;-66
2022/08/30 06:30:30;;;;;;;6.22;3.38;;;;;;;;;;5064021;28;20420;-66
2022/08/30 06:32:56;;;;;;;6.93;3.47;;;;;;;;;;5059143;28;20040;-64
2022/08/30 06:35:21;;;;;;;;;;;;;;;;;;5061288;28;20028;-63
2022/08/30 06:37:47;;;;;;;16.73;4.30;;;;;;;;;;5062895;28;19995;-64
2022/08/30 06:40:16;;;;;;;;;;;;;;;;;;5066629;28;20036;-65
2022/08/30 06:42:42;;;;;;;16.10;4.53;;;;;;;;;;5063327;28;20295;-63
2022/08/30 06:45:09;;;;;;;9.65;4.20;;;;;;;;;;5060484;28;20051;-65
2022/08/30 06:47:35;;;;;;;11.07;4.00;;;;;;;;;;5059379;28;20597;-65
2022/08/30 06:50:01;;;;;;;;;;;;;;;;;;5065217;28;20429;-65
2022/08/30 06:52:27;;;;;;;15.35;3.85;;;;;;;;;;5063442;28;20009;-65
2022/08/30 06:54:54;;;;;;;12.43;4.05;;;;;;;;;;5065085;28;20056;-65
2022/08/30 06:57:20;;;;;;;8.05;3.90;;;;;;;;;;5056590;28;20056;-64
2022/08/30 06:59:46;;;;;;;;;;;;;;;;;;5065304;28;20048;-63
2022/08/30 07:02:12;;;;;;;15.60;4.78;;;;;;;;;;5061306;28;19916;-65
2022/08/30 07:04:38;;;;;;;18.00;5.38;;;;;;;;;;5065693;28;20033;-64
2022/08/30 07:07:04;;;;;;;;;;;;;;;;;;5064632;28;20044;-64
2022/08/30 07:09:30;;;;;;;13.07;5.07;;;;;;;;;;5061255;28;19916;-64
2022/08/30 07:11:56;;;;;;;;;;;;;;;;;;5058257;28;20443;-64
2022/08/30 07:14:22;;;;;;;8.73;4.93;;;;;;;;;;5065769;28;19916;-64
2022/08/30 07:16:48;;;;;;;17.27;4.80;;;;;;;;;;5053256;28;20037;-65
2022/08/30 07:19:14;;;;;;;9.13;5.32;;;;;;;;;;5059118;28;20032;-64
2022/08/30 07:21:42;;;;;;;;;;;;;;;;;;5053684;28;20124;-64
2022/08/30 07:24:09;;;;;;;10.63;5.28;;;;;;;;;;5064163;28;20660;-65
2022/08/30 07:26:36;;;;;;;11.20;5.35;;;;;;;;;;5054369;28;20060;-64
2022/08/30 07:29:03;;;;;;;11.48;5.05;;;;;;;;;;5067065;28;20044;-65
2022/08/30 07:31:29;;;;;;;14.95;5.72;;;;;;;;;;5064747;28;20123;-64
2022/08/30 07:33:56;;;;;;;6.28;4.43;;;;;;;;;;5067873;28;20063;-65
2022/08/30 07:36:23;;;;;;;10.60;4.43;;;;;;;;;;5060296;28;20105;-64
2022/08/30 07:38:50;;;;;;;12.00;5.20;;;;;;;;;;5062125;28;20041;-63
2022/08/30 07:41:20;;;;;;;11.75;4.60;;;;;;;;;;5066732;28;20038;-65
2022/08/30 07:43:46;;;;;;;9.30;4.05;;;;;;;;;;5066594;28;20512;-66
2022/08/30 07:46:12;;;;;;;12.60;4.63;;;;;;;;;;5065762;28;20040;-65
2022/08/30 07:48:38;;;;;;;;;;;;;;;;;;5064571;28;20090;-67
2022/08/30 07:51:08;;;;;;;9.68;4.03;;;;;;;;;;5065568;28;19994;-65
2022/08/30 07:53:34;;;;;;;9.40;3.58;;;;;;;;;;5066246;28;20040;-65
2022/08/30 07:56:00;;;;;;;;;;;;;;;;;;5067931;28;20040;-67
2022/08/30 07:58:26;;;;;;;8.35;3.47;;;;;;;;;;5062860;28;20014;-67
2022/08/30 08:00:52;;;;;;;10.32;4.20;;;;;;;;;;5067118;28;20044;-65
2022/08/30 08:03:18;;;;;;;10.32;3.53;;;;;;;;;;5062929;28;20040;-66
2022/08/30 08:05:44;;;;;;;;;;;;;;;;;;5068686;28;20202;-66
2022/08/30 08:08:11;;;;;;;11.23;3.47;;;;;;;;;;5079901;28;19990;-66
2022/08/30 08:10:38;;;;;;;9.75;3.35;;;;;;;;;;5061382;28;20032;-66
2022/08/30 08:13:05;;;;;;;14.48;3.55;;;;;;;;;;5063479;28;20048;-66
2022/08/30 08:15:31;;;;;;;9.77;2.88;;;;;;;;;;5084557;28;20438;-66
2022/08/30 08:17:57;;;;;;;5.20;2.47;;;;;;;;;;5063619;28;20055;-67
2022/08/30 08:20:25;;;;;;;13.93;2.75;;;;;;;;;;5066789;28;20072;-66
2022/08/30 08:22:51;;;;;;;6.82;2.33;;;;;;;;;;5065113;28;20036;-65
2022/08/30 08:25:18;;;;;;;4.97;2.13;;;;;;;;;;5065132;28;20780;-67
2022/08/30 08:27:46;;;;;;;8.25;2.30;;;;;;;;;;5064583;28;20080;-69
2022/08/30 08:30:12;;;;;;;12.57;3.13;;;;;;;;;;5068912;28;20556;-66
2022/08/30 08:32:39;;;;;;;7.88;2.33;;;;;;;;;;5095360;28;20036;-67
2022/08/30 08:35:05;;;;;;;4.20;2.28;;;;;;;;;;5088635;28;20055;-68
2022/08/30 08:37:31;;;;;;;6.78;2.70;;;;;;;;;;5094606;28;20092;-67
2022/08/30 08:39:57;;;;;;;3.78;1.98;;;;;;;;;;5100225;28;20050;-66
2022/08/30 08:42:42;;;;;;;5.40;2.65;;;;;;;;;;5098665;28;20052;-67
2022/08/30 08:45:12;;;;;;;7.45;2.47;;;;;;;;;;5096949;28;20048;-65
2022/08/30 08:48:01;;;;;;;6.32;2.65;;;;;;;;;;5087343;28;20180;-67
2022/08/30 08:50:28;;;;;;;8.45;2.47;;;;;;;;;;5081865;28;20056;-61
2022/08/30 08:55:45;;;;;;;2.95;1.58;;;;;;;;;;5097892;28;20043;-67
2022/08/30 08:58:23;;;;;;;3.33;1.80;;;;;;;;;;5094667;28;20035;-67
2022/08/30 09:00:49;;;;;;;8.30;2.53;;;;;;;;;;5099046;27;20398;-67
2022/08/30 09:03:16;;;;;;;8.02;2.78;;;;;;;;;;5097744;28;20352;-66
2022/08/30 09:05:42;;;;;;;8.07;2.45;;;;;;;;;;5091756;28;20040;-67
2022/08/30 09:08:13;;;;;;;5.25;2.28;;;;;;;;;;5097587;28;20488;-65
2022/08/30 09:10:39;;;;;;;8.25;2.42;;;;;;;;;;5093103;27;20043;-66
2022/08/30 09:13:05;;;;;;;6.70;2.40;;;;;;;;;;5095256;28;20040;-67
2022/08/30 09:15:33;;;;;;;5.05;2.30;;;;;;;;;;5102893;28;20036;-67
2022/08/30 09:18:03;;;;;;;7.57;2.55;;;;;;;;;;5088182;28;20521;-67
2022/08/30 09:20:31;;;;;;;6.70;2.60;;;;;;;;;;5088072;28;20126;-67
2022/08/30 09:22:58;;;;;;;8.25;2.35;;;;;;;;;;5090764;28;20041;-65
2022/08/30 09:25:24;;;;;;;7.65;2.63;;;;;;;;;;5106118;28;20043;-66
2022/08/30 09:27:51;;;;;;;5.18;2.47;;;;;;;;;;5087242;28;20100;-67
2022/08/30 09:30:17;;;;;;;9.85;3.03;;;;;;;;;;5107206;28;20705;-68
2022/08/30 09:32:51;;;;;;;7.20;2.70;;;;;;;;;;5093176;28;20040;-66
2022/08/30 09:35:20;;;;;;;13.20;2.90;;;;;;;;;;5084477;28;20039;-68
2022/08/30 09:37:46;;;;;;;5.90;2.60;;;;;;;;;;5096570;28;20040;-67
2022/08/30 09:40:21;;;;;;;9.18;3.10;;;;;;;;;;5095547;28;20043;-66
2022/08/30 09:43:04;;;;;;;6.90;2.50;;;;;;;;;;5094407;28;20407;-62
2022/08/30 09:45:34;;;;;;;7.13;2.58;;;;;;;;;;5084382;28;20048;-65
2022/08/30 09:48:01;;;;;;;8.75;2.83;;;;;;;;;;5094951;28;20609;-65
2022/08/30 09:50:32;;;;;;;13.18;3.17;;;;;;;;;;5092707;28;20044;-68
2022/08/30 09:52:58;;;;;;;6.25;2.30;;;;;;;;;;5095345;28;20047;-68
2022/08/30 09:55:36;;;;;;;5.10;2.67;;;;;;;;;;5094279;28;20046;-62
2022/08/30 09:58:12;;;;;;;5.20;2.50;;;;;;;;;;5092225;28;20682;-65
2022/08/30 10:00:38;;;;;;;;;;;;;;;;;;5101612;28;20046;-65
2022/08/30 10:03:08;;;;;;;10.47;2.47;;;;;;;;;;5095250;28;20338;-65
2022/08/30 10:05:48;;;;;;;7.05;2.20;;;;;;;;;;5097616;28;20112;-65
2022/08/30 10:08:24;;;;;;;12.48;2.67;;;;;;;;;;5097247;28;20867;-65
2022/08/30 10:10:53;;;;;;;6.53;2.53;;;;;;;;;;5091859;28;20041;-67
2022/08/30 10:13:42;;;;;;;6.07;2.40;;;;;;;;;;5088829;28;20050;-69
2022/08/30 10:16:14;;;;;;;6.00;2.15;;;;;;;;;;5058889;28;20051;-67
2022/08/30 10:18:48;;;;;;;5.28;2.38;;;;;;;;;;5099786;28;20126;-67
2022/08/30 10:21:27;;;;;;;7.60;2.50;;;;;;;;;;5086810;28;20031;-67
2022/08/30 10:23:57;;;;;;;9.23;2.15;;;;;;;;;;5101800;28;20403;-69
2022/08/30 10:26:42;;;;;;;3.95;2.50;;;;;;;;;;5094055;28;20531;-66
2022/08/30 10:29:08;;;;;;;5.30;2.20;;;;;;;;;;5088785;28;20036;-68
2022/08/30 10:32:03;;;;;;;4.95;1.85;;;;;;;;;;5073502;28;20078;-67
2022/08/30 10:34:39;;;;;;;7.93;2.45;;;;;;;;;;5051301;28;20091;-66
2022/08/30 10:37:11;;;;;;;5.65;2.28;;;;;;;;;;5065385;28;20094;-66
2022/08/30 10:39:40;;;;;;;11.10;2.47;;;;;;;;;;5058281;28;20044;-66
2022/08/30 10:42:10;;;;;;;3.95;2.30;;;;;;;;;;5063986;28;20138;-67
2022/08/30 10:44:43;;;;;;;5.47;2.22;;;;;;;;;;5061542;28;20101;-67
2022/08/30 10:47:21;;;;;;;5.50;2.58;;;;;;;;;;5062913;28;20068;-65
2022/08/30 10:49:48;;;;;;;7.07;2.65;;;;;;;;;;5055716;28;20508;-65
2022/08/30 10:52:36;;;;;;;6.00;2.30;;;;;;;;;;5063545;28;20059;-66
2022/08/30 10:55:07;;;;;;;5.15;2.38;;;;;;;;;;5057769;28;20039;-66
2022/08/30 10:57:33;;;;;;;6.85;2.28;;;;;;;;;;5066078;28;20048;-67
2022/08/30 11:00:11;;;;;;;7.78;2.63;;;;;;;;;;5065193;28;20043;-67
2022/08/30 11:02:56;;;;;;;4.88;1.80;;;;;;;;;;5065183;28;20040;-65
2022/08/30 11:05:46;;;;;;;8.32;2.15;;;;;;;;;;5067019;28;20094;-65
2022/08/30 11:08:27;;;;;;;8.82;2.33;;;;;;;;;;5066757;28;20068;-64
2022/08/30 11:10:56;;;;;;;5.07;2.10;;;;;;;;;;5067825;28;20040;-66
2022/08/30 11:13:25;;;;;;;6.35;2.05;;;;;;;;;;5066526;28;20781;-65
2022/08/30 11:16:00;;;;;;;6.25;2.20;;;;;;;;;;5066891;28;20041;-65
2022/08/30 11:18:28;;;;;;;5.20;2.10;;;;;;;;;;5065194;28;20048;-67
2022/08/30 11:21:11;;;;;;;8.98;2.42;;;;;;;;;;5066638;28;20051;-67
2022/08/30 11:23:37;;;;;;;5.82;2.40;;;;;;;;;;5062848;28;20040;-67
2022/08/30 11:26:05;;;;;;;8.95;2.28;;;;;;;;;;5070868;28;20504;-67
2022/08/30 11:28:37;;;;;;;4.38;1.92;;;;;;;;;;5066047;28;20036;-64
2022/08/30 11:31:07;;;;;;;6.88;2.90;;;;;;;;;;5066001;28;20115;-66
2022/08/30 11:33:47;;;;;;;7.13;2.47;;;;;;;;;;5061253;28;20048;-67
2022/08/30 11:36:40;;;;;;;8.13;2.50;;;;;;;;;;5067356;28;20614;-65
2022/08/30 11:39:08;;;;;;;3.70;1.77;;;;;;;;;;5057477;28;20065;-67
2022/08/30 11:41:45;;;;;;;7.05;2.22;;;;;;;;;;5065576;28;20508;-67
2022/08/30 11:44:26;;;;;;;5.72;2.30;;;;;;;;;;5061158;28;20060;-65
2022/08/30 11:46:53;;;;;;;12.45;2.20;;;;;;;;;;5065585;28;20056;-67
2022/08/30 11:49:19;;;;;;;4.95;1.92;;;;;;;;;;5068840;28;20127;-67
2022/08/30 11:52:04;;;;;;;4.30;2.22;;;;;;;;;;5069941;28;20127;-66
2022/08/30 11:54:41;;;;;;;5.78;2.80;;;;;;;;;;5059132;28;20044;-66
2022/08/30 11:57:17;;;;;;;10.55;2.30;;;;;;;;;;5064995;28;20040;-65
2022/08/30 11:59:50;;;;;;;11.10;2.53;;;;;;;;;;5059844;28;20045;-66
2022/08/30 12:02:49;;;;;;;6.07;2.20;;;;;;;;;;5077638;28;20048;-67
2022/08/30 12:05:33;;;;;;;5.55;2.60;;;;;;;;;;5062459;28;20044;-65
2022/08/30 12:08:01;;;;;;;9.27;2.33;;;;;;;;;;5086899;28;20520;-67
2022/08/30 12:10:37;;;;;;;6.10;2.38;;;;;;;;;;5086255;28;20083;-68
2022/08/30 12:13:04;;;;;;;4.90;2.60;;;;;;;;;;5085714;28;20028;-66
2022/08/30 12:15:49;;;;;;;11.75;2.30;;;;;;;;;;5088519;28;20121;-67
2022/08/30 12:18:26;;;;;;;5.15;2.53;;;;;;;;;;5088880;28;20036;-66
2022/08/30 12:20:54;;;;;;;4.05;2.25;;;;;;;;;;5084685;28;20040;-68
2022/08/30 12:23:22;;;;;;;5.63;2.35;;;;;;;;;;5088424;28;20032;-68
2022/08/30 12:25:49;;;;;;;6.50;2.17;;;;;;;;;;5085947;28;20093;-67
2022/08/30 12:28:15;;;;;;;6.25;2.70;;;;;;;;;;5088648;28;20035;-66
2022/08/30 12:30:41;;;;;;;4.72;2.35;;;;;;;;;;5084941;28;20068;-66
2022/08/30 12:33:12;;;;;;;5.65;2.50;;;;;;;;;;5087780;28;20399;-66
2022/08/30 12:35:40;;;;;;;6.50;2.40;;;;;;;;;;5085937;28;20040;-66
2022/08/30 12:38:11;;;;;;;5.00;2.30;;;;;;;;;;5090819;28;20036;-66
2022/08/30 12:40:37;;;;;;;10.85;2.80;;;;;;;;;;5087280;28;21040;-65
2022/08/30 12:43:05;;;;;;;5.65;2.05;;;;;;;;;;5090261;28;20044;-67
2022/08/30 12:45:51;;;;;;;4.38;2.60;;;;;;;;;;5111002;27;20046;-66
2022/08/30 12:48:18;;;;;;;7.25;2.58;;;;;;;;;;5091358;28;20132;-66
2022/08/30 12:50:51;;;;;;;5.82;2.45;;;;;;;;;;5091292;28;20032;-67
2022/08/30 12:53:37;;;;;;;5.93;2.47;;;;;;;;;;5085012;28;20085;-67
2022/08/30 12:56:08;;;;;;;3.90;2.47;;;;;;;;;;5088583;28;20048;-66
2022/08/30 12:58:45;;;;;;;6.18;2.60;;;;;;;;;;5081185;28;20046;-67
2022/08/30 13:01:26;;;;;;;4.88;2.40;;;;;;;;;;5084437;28;20502;-67
2022/08/30 13:04:01;;;;;;;4.35;2.70;;;;;;;;;;5081573;28;20051;-68
2022/08/30 13:06:36;;;;;;;6.57;2.33;;;;;;;;;;5078518;28;20411;-68
2022/08/30 13:09:03;;;;;;;5.18;2.33;;;;;;;;;;5097494;28;20043;-68
2022/08/30 13:11:29;;;;;;;4.93;2.55;;;;;;;;;;5096690;28;20051;-68
2022/08/30 13:14:15;;;;;;;10.43;2.97;;;;;;;;;;5102611;28;20043;-68
2022/08/30 13:16:41;;;;;;;7.60;2.38;;;;;;;;;;5081765;28;20132;-67
2022/08/30 13:19:16;;;;;;;7.60;2.33;;;;;;;;;;5104207;28;20570;-67
2022/08/30 13:21:54;;;;;;;8.13;2.75;;;;;;;;;;5095527;28;20434;-67
2022/08/30 13:24:22;;;;;;;4.55;2.13;;;;;;;;;;5090807;28;20555;-67
2022/08/30 13:26:48;;;;;;;11.23;2.97;;;;;;;;;;5095976;28;20154;-67
2022/08/30 13:29:18;;;;;;;4.82;2.45;;;;;;;;;;5104177;28;20611;-68
2022/08/30 13:31:45;;;;;;;6.60;2.80;;;;;;;;;;5097269;28;20036;-66
2022/08/30 13:34:10;;;;;;;9.85;2.70;;;;;;;;;;5094933;28;20055;-67
2022/08/30 13:36:40;;;;;;;3.80;1.98;;;;;;;;;;5100625;28;20073;-65
2022/08/30 13:39:06;;;;;;;5.43;2.72;;;;;;;;;;5092826;28;20113;-68
2022/08/30 13:41:32;;;;;;;4.85;2.92;;;;;;;;;;5095000;28;20080;-66
2022/08/30 13:43:58;;;;;;;6.68;2.58;;;;;;;;;;5098711;28;20080;-65
2022/08/30 13:46:25;;;;;;;5.13;2.60;;;;;;;;;;5095043;28;20550;-64
2022/08/30 13:48:58;;;;;;;6.07;2.78;;;;;;;;;;5098832;28;20162;-64
2022/08/30 13:51:25;;;;;;;3.67;2.30;;;;;;;;;;5091866;28;20039;-68
2022/08/30 13:53:51;;;;;;;6.68;2.90;;;;;;;;;;5083032;28;20036;-66
2022/08/30 13:56:17;;;;;;;4.72;2.40;;;;;;;;;;5084530;28;20044;-67
2022/08/30 13:58:43;;;;;;;4.93;2.30;;;;;;;;;;5092635;28;20032;-66
2022/08/30 14:01:09;;;;;;;12.43;3.08;;;;;;;;;;5102365;28;20581;-65
2022/08/30 14:03:35;;;;;;;5.55;2.28;;;;;;;;;;5096143;28;20043;-67
2022/08/30 14:06:01;;;;;;;7.00;2.70;;;;;;;;;;5096705;28;20558;-67
2022/08/30 14:08:28;;;;;;;4.75;2.67;;;;;;;;;;5099970;28;20187;-65
2022/08/30 14:10:55;;;;;;;2.85;2.03;;;;;;;;;;5093939;28;20055;-65
2022/08/30 14:13:21;;;;;;;7.05;3.03;;;;;;;;;;5101506;28;20059;-66
2022/08/30 14:15:47;;;;;;;13.07;2.45;;;;;;;;;;5094485;28;20063;-65
2022/08/30 14:18:14;;;;;;;6.57;2.25;;;;;;;;;;5100556;28;20514;-67
2022/08/30 14:20:40;;;;;;;14.50;2.70;;;;;;;;;;5100449;28;20043;-68
2022/08/30 14:23:06;;;;;;;7.57;2.70;;;;;;;;;;5098020;28;20044;-66
2022/08/30 14:25:33;;;;;;;4.90;2.70;;;;;;;;;;5103362;28;20415;-66
2022/08/30 14:27:59;;;;;;;7.10;2.42;;;;;;;;;;5089734;28;20127;-65
2022/08/30 14:30:25;;;;;;;6.55;2.38;;;;;;;;;;5095757;28;20039;-67
2022/08/30 14:32:51;;;;;;;10.50;2.60;;;;;;;;;;5089861;28;20040;-65
2022/08/30 14:35:19;;;;;;;6.22;2.90;;;;;;;;;;5094092;28;20523;-67
2022/08/30 14:37:45;;;;;;;7.70;2.80;;;;;;;;;;5099671;28;20043;-66
2022/08/30 14:40:11;;;;;;;11.68;2.50;;;;;;;;;;5096913;28;20036;-66
2022/08/30 14:42:37;;;;;;;7.57;2.97;;;;;;;;;;5098038;28;20040;-65